Time;durP1;ratioP1;P1;durP2;ratioP2;P2;SDS_P1;SDS_P2;PMS_P1;PMS_P2;Temp;Humidity;BMP_temperature;BMP_pressure;BME280_temperature;BME280_humidity;BME280_pressure;Samples;Min_cycle;Max_cycle;Signal;HPM_P1;HPM_P2
2022/10/23 00:01:14;;;;;;;7.93;5.00;;;;;;;12.73;100.00;154629.00;4978269;28;20472;-89
2022/10/23 00:03:41;;;;;;;6.00;5.33;;;;;;;12.73;100.00;154629.00;4995222;28;20496;-88
2022/10/23 00:06:08;;;;;;;8.57;6.07;;;;;;;12.66;100.00;154610.81;4995421;28;20500;-89
2022/10/23 00:08:35;;;;;;;7.00;5.60;;;;;;;12.63;100.00;154604.34;4994698;28;20799;-88
2022/10/23 00:11:06;;;;;;;8.00;6.20;;;;;;;12.62;100.00;154600.47;4995925;28;20777;-89
2022/10/23 00:13:33;;;;;;;6.40;5.60;;;;;;;12.59;100.00;154594.00;4975830;28;20454;-88
2022/10/23 00:16:01;;;;;;;6.83;5.73;;;;;;;12.55;100.00;154582.34;4993268;28;20500;-89
2022/10/23 00:18:28;;;;;;;5.80;5.20;;;;;;;12.52;100.00;154575.78;4994069;28;20441;-88
2022/10/23 00:20:55;;;;;;;6.20;5.53;;;;;;;12.54;100.00;154579.72;4994066;28;20468;-88
2022/10/23 00:23:21;;;;;;;5.73;4.30;;;;;;;12.54;100.00;154579.72;4987172;28;20544;-88
2022/10/23 00:25:48;;;;;;;6.60;5.23;;;;;;;12.52;100.00;154575.78;4995368;28;20425;-88
2022/10/23 00:28:14;;;;;;;5.37;4.80;;;;;;;12.52;100.00;154574.53;4995859;28;20473;-88
2022/10/23 00:30:41;;;;;;;8.67;5.50;;;;;;;12.52;100.00;154574.53;4973899;28;20537;-88
2022/10/23 00:33:10;;;;;;;5.60;5.07;;;;;;;12.51;100.00;154571.94;4991463;28;20458;-89
2022/10/23 00:35:39;;;;;;;7.60;6.10;;;;;;;12.48;100.00;154564.16;4994219;28;20434;-88
2022/10/23 00:38:06;;;;;;;6.67;5.00;;;;;;;12.47;100.00;154561.59;4961508;28;20443;-88
2022/10/23 00:40:32;;;;;;;9.20;6.30;;;;;;;12.39;100.00;154542.09;4988566;28;20483;-88
2022/10/23 00:42:59;;;;;;;6.30;5.43;;;;;;;12.37;100.00;154536.91;4982624;28;20442;-87
2022/10/23 00:45:30;;;;;;;6.10;5.20;;;;;;;12.30;100.00;154517.47;4961881;28;20533;-88
2022/10/23 00:47:57;;;;;;;6.97;5.67;;;;;;;12.23;100.00;154500.66;4994714;28;20431;-88
2022/10/23 00:50:27;;;;;;;6.03;5.43;;;;;;;12.19;100.00;154490.25;5000726;28;20451;-88
2022/10/23 00:52:55;;;;;;;6.43;5.90;;;;;;;12.21;100.00;154495.41;4989806;28;20486;-88
2022/10/23 00:55:23;;;;;;;7.37;6.20;;;;;;;12.17;100.00;154486.38;4993417;28;20927;-88
2022/10/23 00:57:50;;;;;;;7.47;5.90;;;;;;;12.16;100.00;154483.78;5001803;28;20444;-88
2022/10/23 01:00:19;;;;;;;6.23;5.63;;;;;;;12.13;100.00;154475.97;4998645;28;20565;-88
2022/10/23 01:02:46;;;;;;;5.97;5.30;;;;;;;12.15;100.00;154479.91;4974373;28;20450;-88
2022/10/23 01:05:13;;;;;;;8.33;6.47;;;;;;;12.13;100.00;154474.66;4961302;28;21254;-88
2022/10/23 01:07:48;;;;;;;6.70;6.00;;;;;;;12.13;100.00;154475.97;4993824;28;20785;-88
2022/10/23 01:10:16;;;;;;;7.10;6.30;;;;;;;12.09;100.00;154465.63;4967046;28;20451;-88
2022/10/23 01:12:47;;;;;;;10.00;6.23;;;;;;;12.06;100.00;154456.53;4974145;28;20454;-88
2022/10/23 01:15:18;;;;;;;7.80;6.97;;;;;;;12.06;100.00;154456.53;4974559;28;20458;-88
2022/10/23 01:17:47;;;;;;;8.90;6.77;;;;;;;12.06;100.00;154457.84;4978138;28;20533;-88
2022/10/23 01:20:25;;;;;;;6.40;5.67;;;;;;;12.04;100.00;154452.69;5002525;28;20510;-88
2022/10/23 01:23:28;;;;;;;7.10;6.40;;;;;;;12.04;100.00;154452.69;4997793;28;20446;-88
2022/10/23 01:26:18;;;;;;;6.17;5.57;;;;;;;12.04;100.00;154452.69;4989588;28;20544;-88
2022/10/23 01:28:49;;;;;;;7.43;5.20;;;;;;;12.05;100.00;154453.94;4994469;28;20449;-88
2022/10/23 01:31:23;;;;;;;6.63;5.13;;;;;;;12.02;100.00;154447.44;4979955;28;20442;-75
2022/10/23 01:33:56;;;;;;;6.10;5.50;;;;;;;12.06;100.00;154457.84;4997537;28;20453;-75
2022/10/23 01:36:28;;;;;;;5.77;4.20;;;;;;;12.07;100.00;154460.41;4995160;28;20428;-75
2022/10/23 01:38:59;;;;;;;4.37;3.97;;;;;;;12.06;100.00;154457.84;4988584;28;20842;-75
2022/10/23 01:41:30;;;;;;;6.20;3.93;;;;;;;12.04;100.00;154452.69;4976074;28;20480;-75
2022/10/23 01:44:03;;;;;;;5.13;3.50;;;;;;;12.06;100.00;154456.53;4975750;28;20485;-75
2022/10/23 01:46:36;;;;;;;5.40;3.80;;;;;;;12.06;100.00;154456.53;4976012;28;20445;-75
2022/10/23 01:49:06;;;;;;;4.40;3.50;;;;;;;12.08;100.00;154463.03;4958539;28;20881;-75
2022/10/23 01:51:33;;;;;;;5.83;2.90;;;;;;;12.08;100.00;154463.03;4996287;28;20464;-75
2022/10/23 01:54:06;;;;;;;3.53;3.10;;;;;;;12.13;100.00;154474.66;4979054;28;20544;-75
2022/10/23 01:56:34;;;;;;;4.77;3.43;;;;;;;12.13;100.00;154475.97;4995110;28;21001;-75
2022/10/23 01:59:05;;;;;;;3.67;3.07;;;;;;;12.17;100.00;154486.38;4964997;28;20823;-75
2022/10/23 02:01:37;;;;;;;3.77;2.77;;;;;;;12.15;100.00;154481.16;4971589;28;20468;-75
2022/10/23 02:04:06;;;;;;;3.13;2.70;;;;;;;12.18;100.00;154488.94;4977299;28;20474;-75
2022/10/23 02:06:32;;;;;;;3.47;2.80;;;;;;;12.19;100.00;154491.56;4955620;28;21003;-75
2022/10/23 02:08:59;;;;;;;3.00;2.60;;;;;;;12.23;100.00;154500.66;4973957;28;20460;-76
2022/10/23 02:11:26;;;;;;;2.77;2.37;;;;;;;12.21;100.00;154496.72;4994599;28;20510;-75
2022/10/23 02:13:58;;;;;;;4.40;2.40;;;;;;;12.22;100.00;154498.03;4995118;28;20457;-75
2022/10/23 02:16:33;;;;;;;2.97;2.67;;;;;;;12.20;100.00;154494.13;5001865;28;20876;-75
2022/10/23 02:19:09;;;;;;;2.50;2.30;;;;;;;12.16;100.00;154483.78;4966181;28;20479;-75
2022/10/23 02:21:41;;;;;;;2.37;2.07;;;;;;;12.13;100.00;154474.66;4986533;28;21026;-75
2022/10/23 02:24:11;;;;;;;4.17;2.87;;;;;;;12.16;100.00;154483.78;4958947;28;20465;-75
2022/10/23 02:26:48;;;;;;;3.23;2.57;;;;;;;12.15;100.00;154479.91;4991730;28;20452;-75
2022/10/23 02:29:19;;;;;;;2.87;2.67;;;;;;;12.14;100.00;154478.59;4993887;28;20461;-75
2022/10/23 02:31:48;;;;;;;4.57;2.63;;;;;;;12.13;100.00;154475.97;4971547;28;20968;-75
2022/10/23 02:34:18;;;;;;;4.47;3.13;;;;;;;12.07;100.00;154460.41;4976464;28;20473;-75
2022/10/23 02:36:44;;;;;;;3.77;2.90;;;;;;;12.05;100.00;154455.25;4991318;28;20481;-76
2022/10/23 02:39:12;;;;;;;2.80;2.50;;;;;;;12.07;100.00;154459.16;4979004;28;20461;-76
2022/10/23 02:41:42;;;;;;;3.30;2.80;;;;;;;12.09;100.00;154465.63;4978546;28;20860;-75
2022/10/23 02:44:25;;;;;;;3.50;2.80;;;;;;;12.10;100.00;154466.88;4986499;28;20467;-75
2022/10/23 02:47:00;;;;;;;4.60;3.23;;;;;;;12.09;100.00;154465.63;4977614;28;20467;-76
2022/10/23 02:49:31;;;;;;;5.03;2.53;;;;;;;12.12;100.00;154473.41;5016141;28;20784;-87
2022/10/23 02:52:05;;;;;;;3.83;2.70;;;;;;;12.12;100.00;154473.41;4999613;28;20439;-88
2022/10/23 02:54:42;;;;;;;3.97;3.13;;;;;;;12.14;100.00;154478.59;4969697;28;20474;-86
2022/10/23 02:57:15;;;;;;;3.27;2.83;;;;;;;12.12;100.00;154472.13;4976606;28;20456;-88
2022/10/23 02:59:53;;;;;;;3.27;2.80;;;;;;;12.08;100.00;154463.03;4976415;28;20497;-88
2022/10/23 03:02:23;;;;;;;3.23;2.93;;;;;;;12.07;100.00;154460.41;4959640;28;20573;-88
2022/10/23 03:04:51;;;;;;;4.50;3.80;;;;;;;12.03;100.00;154450.06;4975405;28;20466;-88
2022/10/23 03:07:20;;;;;;;12.23;2.93;;;;;;;12.02;100.00;154446.19;4959955;28;20458;-88
2022/10/23 03:09:47;;;;;;;6.40;3.10;;;;;;;12.02;100.00;154446.19;4960589;28;20967;-88
2022/10/23 03:12:14;;;;;;;4.03;2.80;;;;;;;12.01;100.00;154444.91;4957186;28;20461;-89
2022/10/23 03:14:40;;;;;;;4.57;3.33;;;;;;;12.01;100.00;154444.91;4970610;28;20781;-88
2022/10/23 03:17:07;;;;;;;4.33;2.53;;;;;;;12.01;100.00;154443.59;4970358;28;20812;-88
2022/10/23 03:19:35;;;;;;;4.17;3.10;;;;;;;12.00;100.00;154442.28;4944445;28;20454;-88
2022/10/23 03:22:04;;;;;;;3.67;3.30;;;;;;;12.01;100.00;154444.91;4945255;29;20477;-88
2022/10/23 03:24:31;;;;;;;3.40;3.10;;;;;;;11.98;100.00;154435.81;4957126;29;20447;-88
2022/10/23 03:26:57;;;;;;;3.50;3.00;;;;;;;11.96;100.00;154430.63;4981816;29;20432;-88
2022/10/23 03:29:30;;;;;;;9.53;3.30;;;;;;;11.95;100.00;154429.31;4929911;28;20444;-76
2022/10/23 03:31:57;;;;;;;4.33;3.20;;;;;;;11.93;100.00;154422.84;4963786;28;20543;-75
2022/10/23 03:34:24;;;;;;;4.13;3.47;;;;;;;11.89;100.00;154413.75;4943896;28;20505;-75
2022/10/23 03:36:54;;;;;;;4.40;3.27;;;;;;;11.84;100.00;154400.78;4959205;28;20438;-75
2022/10/23 03:39:21;;;;;;;3.93;3.60;;;;;;;11.82;100.00;154395.63;4956131;28;20541;-75
2022/10/23 03:41:48;;;;;;;5.20;4.70;;;;;;;11.80;100.00;154390.44;4943044;28;20470;-75
2022/10/23 03:44:17;;;;;;;4.90;4.40;;;;;;;11.77;100.00;154382.66;4954891;28;20489;-75
2022/10/23 03:46:44;;;;;;;5.63;4.27;;;;;;;11.79;100.00;154387.84;4958472;28;20541;-76
2022/10/23 03:49:11;;;;;;;8.03;4.63;;;;;;;11.80;100.00;154389.16;4956031;28;20462;-75
2022/10/23 03:51:42;;;;;;;5.20;4.50;;;;;;;11.77;100.00;154382.66;4925527;28;20452;-75
2022/10/23 03:54:11;;;;;;;4.77;4.37;;;;;;;11.80;100.00;154390.44;4958129;28;20461;-76
2022/10/23 03:56:38;;;;;;;5.70;4.30;;;;;;;11.80;100.00;154389.16;4958660;28;20478;-75
2022/10/23 03:59:07;;;;;;;5.07;4.47;;;;;;;11.81;100.00;154393.00;4949036;28;20507;-75
2022/10/23 04:01:33;;;;;;;4.20;3.80;;;;;;;11.81;100.00;154391.75;4984023;28;20569;-75
2022/10/23 04:04:00;;;;;;;4.40;4.00;;;;;;;11.82;100.00;154394.31;4975200;28;20446;-75
2022/10/23 04:06:27;;;;;;;5.90;4.90;;;;;;;11.83;100.00;154398.22;4943276;28;20461;-75
2022/10/23 04:08:56;;;;;;;5.30;4.10;;;;;;;11.82;100.00;154395.63;4955702;28;20470;-76
2022/10/23 04:11:24;;;;;;;4.40;3.93;;;;;;;11.82;100.00;154395.63;4957067;28;20486;-76
2022/10/23 04:13:51;;;;;;;5.83;4.00;;;;;;;11.76;100.00;154378.75;4975228;28;20439;-76
2022/10/23 04:16:17;;;;;;;5.60;5.00;;;;;;;11.73;100.00;154372.28;4959895;28;20566;-76
2022/10/23 04:18:45;;;;;;;4.83;4.23;;;;;;;11.73;100.00;154371.03;4954278;29;20463;-76
2022/10/23 04:21:11;;;;;;;6.47;4.73;;;;;;;11.69;100.00;154361.94;4941376;28;20513;-76
2022/10/23 04:23:39;;;;;;;5.00;4.40;;;;;;;11.66;100.00;154354.09;4934068;28;20464;-76
2022/10/23 04:26:11;;;;;;;6.17;5.07;;;;;;;11.66;100.00;154352.78;4961876;28;20492;-76
2022/10/23 04:28:40;;;;;;;8.30;5.57;;;;;;;11.66;100.00;154354.09;4959797;28;20467;-76
2022/10/23 04:31:06;;;;;;;5.63;4.43;;;;;;;11.66;100.00;154354.09;4940402;28;20529;-75
2022/10/23 04:33:33;;;;;;;6.17;5.57;;;;;;;11.65;100.00;154351.50;4942422;28;20465;-75
2022/10/23 04:36:00;;;;;;;5.87;5.30;;;;;;;11.68;100.00;154359.28;4967664;28;20434;-76
2022/10/23 04:38:26;;;;;;;6.23;5.13;;;;;;;11.66;100.00;154352.78;4955990;28;20501;-75
2022/10/23 04:40:53;;;;;;;7.60;5.40;;;;;;;11.69;100.00;154361.94;4956564;28;20497;-75
2022/10/23 04:43:21;;;;;;;6.40;5.73;;;;;;;11.69;100.00;154360.63;4970004;28;20490;-75
2022/10/23 04:45:50;;;;;;;6.60;6.00;;;;;;;11.70;100.00;154364.53;4924114;29;20470;-75
2022/10/23 04:48:16;;;;;;;10.30;5.93;;;;;;;11.69;100.00;154361.94;4949568;28;20458;-75
2022/10/23 04:51:04;;;;;;;6.87;5.10;;;;;;;11.72;100.00;154368.41;4972304;28;20500;-75
2022/10/23 04:53:54;;;;;;;6.60;5.97;;;;;;;11.73;100.00;154371.03;4956510;28;20965;-75
2022/10/23 04:56:39;;;;;;;6.33;4.80;;;;;;;11.71;100.00;154367.09;4940033;28;20470;-75
2022/10/23 04:59:10;;;;;;;5.90;5.23;;;;;;;11.71;100.00;154367.09;4953076;28;20461;-75
2022/10/23 05:01:39;;;;;;;11.10;5.47;;;;;;;11.72;100.00;154369.72;4946016;28;20969;-76
2022/10/23 05:04:07;;;;;;;6.60;5.43;;;;;;;11.73;100.00;154371.03;4957091;28;20513;-76
2022/10/23 05:06:45;;;;;;;6.40;4.77;;;;;;;11.74;100.00;154374.88;4956888;28;20434;-75
2022/10/23 05:09:21;;;;;;;9.20;5.13;;;;;;;11.76;100.00;154380.06;4938685;28;20814;-76
2022/10/23 05:11:59;;;;;;;5.30;4.73;;;;;;;11.76;100.00;154380.06;4940307;28;20451;-76
2022/10/23 05:14:26;;;;;;;5.47;4.97;;;;;;;11.75;100.00;154377.50;4955948;28;20574;-76
2022/10/23 05:16:56;;;;;;;6.43;4.30;;;;;;;11.75;100.00;154377.50;4952491;28;20958;-76
2022/10/23 05:19:26;;;;;;;5.70;4.97;;;;;;;11.75;100.00;154376.19;4967041;28;20456;-76
2022/10/23 05:21:54;;;;;;;10.30;4.73;;;;;;;11.74;100.00;154374.88;4956787;28;20502;-76
2022/10/23 05:24:25;;;;;;;5.03;4.40;;;;;;;11.74;100.00;154374.88;4955693;28;20443;-76
2022/10/23 05:26:57;;;;;;;5.27;4.70;;;;;;;11.74;100.00;154374.88;4939296;28;20450;-76
2022/10/23 05:29:24;;;;;;;5.47;4.80;;;;;;;11.71;100.00;154367.09;4967003;28;20458;-76
2022/10/23 05:31:57;;;;;;;5.13;4.53;;;;;;;11.68;100.00;154359.28;4970693;28;20434;-76
2022/10/23 05:34:27;;;;;;;5.73;5.07;;;;;;;11.69;100.00;154360.63;4936216;29;20454;-76
2022/10/23 05:36:55;;;;;;;9.87;4.97;;;;;;;11.71;100.00;154365.81;4957180;28;20488;-76
2022/10/23 05:39:24;;;;;;;4.80;4.30;;;;;;;11.71;100.00;154367.09;4937086;28;20871;-76
2022/10/23 05:41:53;;;;;;;5.90;5.03;;;;;;;11.73;100.00;154371.03;4958589;28;20470;-76
2022/10/23 05:44:23;;;;;;;6.17;4.80;;;;;;;11.71;100.00;154365.81;4970997;28;20510;-76
2022/10/23 05:46:59;;;;;;;5.00;4.33;;;;;;;11.72;100.00;154368.41;4971776;28;20528;-75
2022/10/23 05:49:44;;;;;;;4.53;4.13;;;;;;;11.69;100.00;154361.94;4968162;28;20466;-76
2022/10/23 05:52:47;;;;;;;4.30;3.90;;;;;;;11.72;100.00;154369.72;4945382;29;20538;-76
2022/10/23 05:55:33;;;;;;;4.73;3.77;;;;;;;11.74;100.00;154373.59;4950780;28;20478;-76
2022/10/23 05:58:29;;;;;;;4.13;3.73;;;;;;;11.73;100.00;154372.28;4962130;28;20465;-77
2022/10/23 06:01:05;;;;;;;4.23;2.83;;;;;;;11.75;100.00;154376.19;4952811;28;20473;-77
2022/10/23 06:03:58;;;;;;;5.77;3.57;;;;;;;11.75;100.00;154377.50;4964306;28;20943;-77
2022/10/23 06:06:35;;;;;;;3.97;2.60;;;;;;;11.74;100.00;154374.88;4941899;28;20513;-76
2022/10/23 06:09:02;;;;;;;4.60;3.50;;;;;;;11.74;100.00;154374.88;4960977;28;20480;-76
2022/10/23 06:11:30;;;;;;;3.43;3.10;;;;;;;11.73;100.00;154372.28;4956959;28;20462;-76
2022/10/23 06:14:02;;;;;;;3.73;3.10;;;;;;;11.77;100.00;154381.38;4958975;28;20468;-76
2022/10/23 06:16:29;;;;;;;3.30;3.00;;;;;;;11.78;100.00;154385.22;4981185;28;20445;-76
2022/10/23 06:18:59;;;;;;;5.20;3.70;;;;;;;11.78;100.00;154385.22;4962755;28;20509;-75
2022/10/23 06:21:26;;;;;;;4.50;3.00;;;;;;;11.78;100.00;154385.22;4943640;28;20521;-77
2022/10/23 06:23:53;;;;;;;4.93;3.33;;;;;;;11.81;100.00;154391.75;4977097;28;20454;-77
2022/10/23 06:26:40;;;;;;;5.20;3.00;;;;;;;11.85;100.00;154403.41;4973461;28;20461;-76
2022/10/23 06:29:10;;;;;;;5.40;2.97;;;;;;;11.89;100.00;154413.75;4944164;28;20474;-75
2022/10/23 06:31:38;;;;;;;5.00;3.47;;;;;;;11.89;100.00;154413.75;4957292;28;20806;-75
2022/10/23 06:34:06;;;;;;;5.23;3.70;;;;;;;11.90;100.00;154416.38;4944472;28;20466;-77
2022/10/23 06:36:33;;;;;;;4.27;3.87;;;;;;;11.90;100.00;154416.38;4977245;28;20456;-76
2022/10/23 06:39:09;;;;;;;4.30;3.87;;;;;;;11.92;100.00;154421.53;4941531;28;20461;-76
2022/10/23 06:42:00;;;;;;;5.73;4.43;;;;;;;11.90;100.00;154416.38;4962697;28;20470;-76
2022/10/23 06:44:49;;;;;;;5.73;4.43;;;;;;;11.91;100.00;154418.97;4956679;28;20553;-76
2022/10/23 06:47:27;;;;;;;4.60;4.00;;;;;;;11.92;100.00;154421.53;4946285;28;20476;-75
2022/10/23 06:50:15;;;;;;;4.60;4.20;;;;;;;11.97;100.00;154433.19;4971267;28;20823;-75
2022/10/23 06:52:42;;;;;;;5.00;3.93;;;;;;;11.97;100.00;154434.50;4959680;28;20533;-76
2022/10/23 06:55:10;;;;;;;4.60;4.20;;;;;;;12.04;100.00;154452.69;4963010;28;20851;-77
2022/10/23 06:57:38;;;;;;;4.33;3.93;;;;;;;12.07;100.00;154460.41;4970360;28;20467;-76
2022/10/23 07:00:06;;;;;;;4.30;3.90;;;;;;;12.11;100.00;154469.50;4990922;28;20469;-76
2022/10/23 07:02:42;;;;;;;5.20;4.20;;;;;;;12.18;100.00;154488.94;4941880;28;20882;-75
2022/10/23 07:05:09;;;;;;;6.80;4.53;;;;;;;12.29;100.00;154514.84;4976148;28;20465;-77
2022/10/23 07:07:37;;;;;;;4.53;4.13;;;;;;;12.39;100.00;154540.84;4958740;28;20501;-77
2022/10/23 07:10:05;;;;;;;5.13;4.23;;;;;;;12.45;100.00;154557.66;4991010;28;20466;-77
2022/10/23 07:12:59;;;;;;;4.87;4.00;;;;;;;12.56;100.00;154584.91;4966528;28;21039;-76
2022/10/23 07:15:47;;;;;;;9.23;5.00;;;;;;;12.63;100.00;154603.03;4970270;28;20461;-76
2022/10/23 07:18:19;;;;;;;5.10;4.60;;;;;;;12.74;100.00;154631.56;4952510;28;20545;-88
2022/10/23 07:21:05;;;;;;;5.40;4.90;;;;;;;12.83;100.00;154656.25;4977730;28;20956;-88
2022/10/23 07:23:34;;;;;;;6.50;5.00;;;;;;;12.91;100.00;154675.69;4960537;28;21052;-88
2022/10/23 07:26:08;;;;;;;5.30;4.80;;;;;;;12.96;100.00;154688.66;4964428;28;20515;-88
2022/10/23 07:28:35;;;;;;;5.40;4.73;;;;;;;13.06;100.00;154714.59;4960435;28;20454;-88
2022/10/23 07:31:03;;;;;;;5.20;4.70;;;;;;;13.09;100.00;154722.44;4955789;28;20438;-88
2022/10/23 07:33:50;;;;;;;6.00;4.87;;;;;;;13.14;100.00;154735.41;4990023;28;20462;-89
2022/10/23 07:36:19;;;;;;;6.10;4.90;;;;;;;13.18;100.00;154745.81;4974658;28;20477;-89
2022/10/23 07:38:48;;;;;;;5.07;4.27;;;;;;;13.21;100.00;154752.31;4941534;28;20467;-76
2022/10/23 07:41:15;;;;;;;7.97;4.67;;;;;;;13.30;100.00;154776.94;4957172;28;20426;-76
2022/10/23 07:43:44;;;;;;;4.60;3.67;;;;;;;13.43;100.00;154810.66;4942482;28;20564;-76
2022/10/23 07:46:11;;;;;;;3.97;3.50;;;;;;;13.46;100.00;154817.16;4942624;28;20454;-76
2022/10/23 07:48:40;;;;;;;6.33;3.57;;;;;;;13.54;100.00;154836.63;4973019;28;20454;-76
2022/10/23 07:51:10;;;;;;;7.03;4.07;;;;;;;13.56;100.00;154843.09;4968399;28;20452;-76
2022/10/23 07:53:48;;;;;;;3.80;3.37;;;;;;;13.68;100.00;154874.28;4974574;28;20458;-89
2022/10/23 07:56:50;;;;;;;4.30;3.30;;;;;;;13.73;100.00;154885.94;4957638;28;20553;-88
2022/10/23 07:59:24;;;;;;;4.40;3.20;;;;;;;13.84;100.00;154914.50;4955352;28;20470;-90
2022/10/23 08:01:55;;;;;;;4.47;3.83;;;;;;;13.91;100.00;154932.66;4981669;28;20508;-89
2022/10/23 08:04:24;;;;;;;10.30;3.20;;;;;;;14.01;100.00;154959.94;4980713;28;20454;-88
2022/10/23 08:07:02;;;;;;;4.00;3.50;;;;;;;14.07;100.00;154974.22;4957110;28;20462;-88
2022/10/23 08:09:36;;;;;;;3.43;3.03;;;;;;;14.11;100.00;154984.59;4950958;28;20471;-76
2022/10/23 08:12:04;;;;;;;3.50;3.07;;;;;;;14.16;100.00;154997.59;4957451;28;20525;-77
2022/10/23 08:14:31;;;;;;;8.63;3.60;;;;;;;14.27;100.00;155026.13;4967618;28;20486;-77
2022/10/23 08:16:58;;;;;;;3.83;3.17;;;;;;;14.39;100.00;155056.06;4974131;28;20876;-78
2022/10/23 08:19:56;;;;;;;3.47;2.80;;;;;;;14.55;100.00;155097.63;4958548;28;20450;-76
2022/10/23 08:22:26;;;;;;;3.63;2.63;;;;;;;14.61;100.00;155113.25;4959723;28;20465;-76
2022/10/23 08:24:55;;;;;;;5.30;2.83;;;;;;;14.79;100.00;155160.00;4955124;28;20454;-76
2022/10/23 08:27:22;;;;;;;3.57;2.50;;;;;;;14.96;100.00;155202.81;4937963;28;20478;-76
2022/10/23 08:29:49;;;;;;;3.20;2.80;;;;;;;15.06;100.00;155228.84;4972117;28;20466;-76
2022/10/23 08:32:16;;;;;;;3.63;3.10;;;;;;;15.17;100.00;155257.41;4957281;28;20525;-76
2022/10/23 08:35:07;;;;;;;5.87;3.40;;;;;;;15.23;100.00;155273.00;4956745;28;20925;-77
2022/10/23 08:37:36;;;;;;;4.93;3.83;;;;;;;15.32;100.00;155296.41;4942959;28;20465;-76
2022/10/23 08:40:05;;;;;;;5.40;3.80;;;;;;;15.35;100.00;155302.91;4960353;28;20593;-76
2022/10/23 08:42:59;;;;;;;6.70;4.47;;;;;;;15.38;100.00;155310.72;4955774;28;20489;-78
2022/10/23 08:45:30;;;;;;;6.23;4.90;;;;;;;15.36;100.00;155306.78;4973699;28;20478;-78
2022/10/23 08:48:10;;;;;;;8.37;6.40;;;;;;;15.35;100.00;155302.91;4956815;28;20849;-78
2022/10/23 08:50:43;;;;;;;6.03;4.80;;;;;;;15.35;100.00;155304.22;4973794;28;20438;-78
2022/10/23 08:53:15;;;;;;;7.63;4.10;;;;;;;15.36;100.00;155306.78;4970560;28;20454;-77
2022/10/23 08:55:45;;;;;;;3.50;2.00;;;;;;;15.38;100.00;155311.97;4988120;28;20472;-77
2022/10/23 08:58:16;;;;;;;3.83;2.80;;;;;;;15.44;100.00;155326.28;4989793;28;20443;-77
2022/10/23 09:00:43;;;;;;;4.43;3.40;;;;;;;15.39;100.00;155313.28;4992184;28;20532;-77
2022/10/23 09:03:11;;;;;;;5.47;3.23;;;;;;;15.42;100.00;155322.41;4983856;28;20481;-77
2022/10/23 09:05:50;;;;;;;3.93;2.90;;;;;;;15.51;100.00;155345.88;4975853;28;20540;-77
2022/10/23 09:08:30;;;;;;;2.77;2.57;;;;;;;15.59;100.00;155366.66;4992100;28;20557;-77
2022/10/23 09:11:12;;;;;;;5.50;3.40;;;;;;;15.68;100.00;155388.72;4974320;28;20456;-77
2022/10/23 09:13:55;;;;;;;4.23;3.83;;;;;;;15.77;100.00;155413.47;4985879;28;20528;-77
2022/10/23 09:16:28;;;;;;;4.50;2.60;;;;;;;15.91;100.00;155448.56;5006490;28;20423;-77
2022/10/23 09:18:55;;;;;;;3.67;3.00;;;;;;;15.95;100.00;155458.94;4994759;28;20832;-77
2022/10/23 09:21:26;;;;;;;3.73;3.27;;;;;;;16.01;100.00;155473.25;4968890;28;20462;-77
2022/10/23 09:23:52;;;;;;;4.83;3.70;;;;;;;16.04;99.62;155482.38;4984630;28;20482;-77
2022/10/23 09:26:20;;;;;;;7.33;2.93;;;;;;;16.06;100.00;155486.25;4966480;28;20460;-77
2022/10/23 09:28:49;;;;;;;3.60;2.93;;;;;;;16.10;100.00;155496.63;4955823;28;20478;-77
2022/10/23 09:31:17;;;;;;;3.43;2.43;;;;;;;16.19;99.69;155521.38;4980507;28;21165;-77
2022/10/23 09:33:54;;;;;;;5.63;3.80;;;;;;;16.18;99.54;155518.75;4993612;28;20433;-77
2022/10/23 09:36:23;;;;;;;3.77;2.97;;;;;;;16.25;99.36;155535.66;4985195;28;20958;-77
2022/10/23 09:38:52;;;;;;;3.87;2.70;;;;;;;16.28;100.00;155543.47;4991238;28;20959;-77
2022/10/23 09:41:23;;;;;;;3.47;2.23;;;;;;;16.31;100.00;155551.25;4992403;28;20532;-77
2022/10/23 09:44:00;;;;;;;4.20;2.30;;;;;;;16.35;98.14;155562.97;4975224;28;20576;-77
2022/10/23 09:46:37;;;;;;;6.10;2.00;;;;;;;16.37;97.59;155566.84;4998036;28;20434;-77
2022/10/23 09:49:06;;;;;;;2.03;1.70;;;;;;;16.39;98.25;155572.06;4999479;28;20461;-76
2022/10/23 09:51:34;;;;;;;2.63;2.17;;;;;;;16.46;96.98;155590.28;4989984;28;20500;-77
2022/10/23 09:54:01;;;;;;;4.20;1.77;;;;;;;16.47;97.78;155592.88;4988475;28;20461;-77
2022/10/23 09:56:30;;;;;;;2.80;2.00;;;;;;;16.51;97.39;155603.28;4984994;28;20482;-77
2022/10/23 09:58:59;;;;;;;3.87;1.83;;;;;;;16.54;97.42;155611.16;4979799;28;20513;-77
2022/10/23 10:01:27;;;;;;;2.10;1.87;;;;;;;16.67;96.10;155644.97;4973891;28;20427;-77
2022/10/23 10:04:00;;;;;;;2.73;2.43;;;;;;;16.72;96.39;155656.66;4951983;28;20511;-77
2022/10/23 10:06:28;;;;;;;2.77;1.57;;;;;;;16.81;95.22;155681.38;4974971;28;20449;-77
2022/10/23 10:08:56;;;;;;;2.10;1.60;;;;;;;16.79;95.67;155676.19;4992406;28;20444;-77
2022/10/23 10:11:34;;;;;;;4.63;1.97;;;;;;;16.78;96.02;155672.28;4995831;28;20933;-76
2022/10/23 10:14:26;;;;;;;4.50;1.90;;;;;;;16.84;95.76;155689.19;4993946;28;20453;-77
2022/10/23 10:16:56;;;;;;;2.30;1.70;;;;;;;16.96;95.21;155720.44;4992079;28;20437;-79
2022/10/23 10:19:36;;;;;;;6.17;1.83;;;;;;;17.01;96.11;155733.44;4989723;28;20515;-78
2022/10/23 10:22:07;;;;;;;3.97;1.73;;;;;;;17.02;95.11;155736.00;4957292;28;21007;-77
2022/10/23 10:24:39;;;;;;;2.67;2.00;;;;;;;17.14;94.30;155764.66;4974710;28;20488;-78
2022/10/23 10:27:14;;;;;;;3.20;2.80;;;;;;;17.22;93.82;155785.47;4990912;28;20473;-77
2022/10/23 10:29:52;;;;;;;2.47;2.00;;;;;;;17.29;93.07;155803.72;4992192;28;20531;-78
2022/10/23 10:32:31;;;;;;;4.20;2.10;;;;;;;17.37;92.96;155825.81;4989323;28;20438;-78
2022/10/23 10:35:04;;;;;;;2.77;1.80;;;;;;;17.45;94.06;155846.63;4988259;28;20463;-78
2022/10/23 10:37:41;;;;;;;2.93;2.10;;;;;;;17.47;94.45;155851.84;4983663;28;20455;-78
2022/10/23 10:40:11;;;;;;;3.40;1.77;;;;;;;17.48;94.78;155853.16;4992553;28;20445;-78
2022/10/23 10:42:57;;;;;;;2.77;1.93;;;;;;;17.59;94.04;155883.16;4974602;28;20414;-78
2022/10/23 10:45:31;;;;;;;4.10;1.90;;;;;;;17.64;94.41;155896.16;4975224;28;20541;-77
2022/10/23 10:48:07;;;;;;;3.70;1.80;;;;;;;17.80;94.05;155935.22;4969664;28;20496;-78
2022/10/23 10:50:56;;;;;;;2.67;1.93;;;;;;;17.97;93.44;155979.50;4990471;28;20453;-78
2022/10/23 10:53:38;;;;;;;2.93;2.40;;;;;;;17.97;93.38;155980.81;4977185;28;20453;-78
2022/10/23 10:56:08;;;;;;;2.20;2.00;;;;;;;17.92;93.52;155967.78;4962811;28;20476;-78
2022/10/23 10:58:40;;;;;;;2.93;2.10;;;;;;;17.94;92.86;155973.00;4958226;28;20963;-78
2022/10/23 11:01:13;;;;;;;2.37;2.17;;;;;;;17.91;94.37;155963.88;4973758;28;20505;-76
2022/10/23 11:03:45;;;;;;;2.30;2.10;;;;;;;17.92;95.52;155967.78;4971270;28;20488;-79
2022/10/23 11:06:15;;;;;;;4.30;2.47;;;;;;;17.95;96.20;155975.56;4973935;28;21047;-78
2022/10/23 11:08:42;;;;;;;4.60;2.30;;;;;;;18.03;95.74;155996.41;4971756;28;20597;-76
2022/10/23 11:11:13;;;;;;;3.10;2.23;;;;;;;18.08;96.27;156009.41;4974542;28;20476;-77
2022/10/23 11:13:43;;;;;;;7.17;2.80;;;;;;;18.17;95.41;156032.88;4953158;28;20458;-78
2022/10/23 11:16:12;;;;;;;3.77;2.33;;;;;;;18.14;96.88;156025.06;4974568;28;20458;-78
2022/10/23 11:18:42;;;;;;;4.50;2.80;;;;;;;18.38;95.46;156086.28;4974138;28;20447;-78
2022/10/23 11:21:23;;;;;;;3.00;2.70;;;;;;;18.51;93.78;156118.88;4949067;28;20455;-78
2022/10/23 11:24:15;;;;;;;2.53;2.20;;;;;;;18.54;92.55;156126.69;4963139;28;20475;-78
2022/10/23 11:26:51;;;;;;;6.07;2.70;;;;;;;18.49;92.33;156113.66;4968043;28;20451;-76
2022/10/23 11:29:35;;;;;;;2.67;2.47;;;;;;;18.43;93.32;156097.97;4963352;28;20442;-77
2022/10/23 11:32:14;;;;;;;3.13;2.80;;;;;;;18.43;92.96;156097.97;4961206;28;20459;-78
2022/10/23 11:34:51;;;;;;;5.43;3.00;;;;;;;18.49;91.96;156114.97;4973101;28;20446;-76
2022/10/23 11:37:19;;;;;;;5.60;2.53;;;;;;;18.58;91.27;156138.44;4957771;28;20482;-78
2022/10/23 11:39:59;;;;;;;2.33;1.80;;;;;;;18.70;89.53;156168.38;4973129;28;20431;-77
2022/10/23 11:42:31;;;;;;;3.17;2.37;;;;;;;18.57;90.15;156135.84;4952968;28;20447;-77